sensor_id;sensor_type;location;lat;lon;timestamp;P1;durP1;ratioP1;P2;durP2;ratioP2
33830;SDS011;20137;48.834;8.732;2023-12-22T00:01:14;20.35;;;3.58;;
33830;SDS011;20137;48.834;8.732;2023-12-22T00:03:43;16.40;;;2.95;;
33830;SDS011;20137;48.834;8.732;2023-12-22T00:06:11;11.40;;;2.80;;
33830;SDS011;20137;48.834;8.732;2023-12-22T00:08:37;11.18;;;1.70;;
33830;SDS011;20137;48.834;8.732;2023-12-22T00:11:03;9.32;;;2.33;;
33830;SDS011;20137;48.834;8.732;2023-12-22T00:13:29;6.68;;;2.28;;
33830;SDS011;20137;48.834;8.732;2023-12-22T00:15:58;7.90;;;1.58;;
33830;SDS011;20137;48.834;8.732;2023-12-22T00:18:24;10.10;;;1.80;;
33830;SDS011;20137;48.834;8.732;2023-12-22T00:20:50;5.22;;;1.50;;
33830;SDS011;20137;48.834;8.732;2023-12-22T00:23:16;15.75;;;2.08;;
33830;SDS011;20137;48.834;8.732;2023-12-22T00:25:42;9.50;;;2.10;;
33830;SDS011;20137;48.834;8.732;2023-12-22T00:28:08;5.35;;;2.22;;
33830;SDS011;20137;48.834;8.732;2023-12-22T00:30:34;4.25;;;1.45;;
33830;SDS011;20137;48.834;8.732;2023-12-22T00:33:00;7.75;;;1.77;;
33830;SDS011;20137;48.834;8.732;2023-12-22T00:35:26;6.10;;;1.77;;
33830;SDS011;20137;48.834;8.732;2023-12-22T00:37:52;5.95;;;2.28;;
33830;SDS011;20137;48.834;8.732;2023-12-22T00:40:18;13.75;;;2.08;;
33830;SDS011;20137;48.834;8.732;2023-12-22T00:42:44;7.47;;;1.50;;
33830;SDS011;20137;48.834;8.732;2023-12-22T00:45:10;7.82;;;2.08;;
33830;SDS011;20137;48.834;8.732;2023-12-22T00:47:36;15.38;;;1.92;;
33830;SDS011;20137;48.834;8.732;2023-12-22T00:50:02;9.40;;;1.50;;
33830;SDS011;20137;48.834;8.732;2023-12-22T00:52:29;12.50;;;1.90;;
33830;SDS011;20137;48.834;8.732;2023-12-22T00:54:55;11.93;;;1.60;;
33830;SDS011;20137;48.834;8.732;2023-12-22T00:57:21;6.63;;;1.60;;
33830;SDS011;20137;48.834;8.732;2023-12-22T00:59:47;13.73;;;2.08;;
33830;SDS011;20137;48.834;8.732;2023-12-22T01:02:17;12.40;;;2.55;;
33830;SDS011;20137;48.834;8.732;2023-12-22T01:04:43;6.95;;;1.67;;
33830;SDS011;20137;48.834;8.732;2023-12-22T01:07:10;6.20;;;1.45;;
33830;SDS011;20137;48.834;8.732;2023-12-22T01:09:36;11.68;;;2.33;;
33830;SDS011;20137;48.834;8.732;2023-12-22T01:12:05;8.88;;;1.50;;
33830;SDS011;20137;48.834;8.732;2023-12-22T01:14:32;7.90;;;1.83;;
33830;SDS011;20137;48.834;8.732;2023-12-22T01:16:58;7.03;;;1.42;;
33830;SDS011;20137;48.834;8.732;2023-12-22T01:19:25;5.03;;;1.02;;
33830;SDS011;20137;48.834;8.732;2023-12-22T01:21:51;6.18;;;1.13;;
33830;SDS011;20137;48.834;8.732;2023-12-22T01:24:17;8.82;;;1.63;;
33830;SDS011;20137;48.834;8.732;2023-12-22T01:26:43;3.58;;;1.13;;
33830;SDS011;20137;48.834;8.732;2023-12-22T01:29:09;3.80;;;0.73;;
33830;SDS011;20137;48.834;8.732;2023-12-22T01:31:35;2.38;;;0.60;;
33830;SDS011;20137;48.834;8.732;2023-12-22T01:34:01;3.40;;;1.17;;
33830;SDS011;20137;48.834;8.732;2023-12-22T01:36:27;3.25;;;1.10;;
33830;SDS011;20137;48.834;8.732;2023-12-22T01:38:53;5.13;;;0.80;;
33830;SDS011;20137;48.834;8.732;2023-12-22T01:41:19;4.40;;;0.80;;
33830;SDS011;20137;48.834;8.732;2023-12-22T01:43:45;5.82;;;0.60;;
33830;SDS011;20137;48.834;8.732;2023-12-22T01:46:11;2.28;;;0.70;;
33830;SDS011;20137;48.834;8.732;2023-12-22T01:48:38;4.20;;;0.80;;
33830;SDS011;20137;48.834;8.732;2023-12-22T01:51:04;3.60;;;0.80;;
33830;SDS011;20137;48.834;8.732;2023-12-22T01:53:32;6.05;;;0.95;;
33830;SDS011;20137;48.834;8.732;2023-12-22T01:55:59;6.30;;;0.98;;
33830;SDS011;20137;48.834;8.732;2023-12-22T01:58:26;4.97;;;0.80;;
33830;SDS011;20137;48.834;8.732;2023-12-22T02:00:52;2.90;;;0.95;;
33830;SDS011;20137;48.834;8.732;2023-12-22T02:03:18;4.72;;;1.45;;
33830;SDS011;20137;48.834;8.732;2023-12-22T02:05:44;5.55;;;0.90;;
33830;SDS011;20137;48.834;8.732;2023-12-22T02:08:11;3.80;;;1.17;;
33830;SDS011;20137;48.834;8.732;2023-12-22T02:10:37;5.65;;;1.10;;
33830;SDS011;20137;48.834;8.732;2023-12-22T02:13:04;6.93;;;1.20;;
33830;SDS011;20137;48.834;8.732;2023-12-22T02:15:31;6.00;;;1.17;;
33830;SDS011;20137;48.834;8.732;2023-12-22T02:18:07;7.55;;;1.45;;
33830;SDS011;20137;48.834;8.732;2023-12-22T02:20:34;7.30;;;1.40;;
33830;SDS011;20137;48.834;8.732;2023-12-22T02:23:00;5.60;;;1.23;;
33830;SDS011;20137;48.834;8.732;2023-12-22T02:25:26;10.80;;;2.00;;
33830;SDS011;20137;48.834;8.732;2023-12-22T02:27:53;10.77;;;1.83;;
33830;SDS011;20137;48.834;8.732;2023-12-22T02:32:56;3.40;;;1.08;;
33830;SDS011;20137;48.834;8.732;2023-12-22T02:35:25;9.60;;;1.98;;
33830;SDS011;20137;48.834;8.732;2023-12-22T02:37:52;10.73;;;2.00;;
33830;SDS011;20137;48.834;8.732;2023-12-22T02:40:18;10.02;;;2.88;;
33830;SDS011;20137;48.834;8.732;2023-12-22T02:42:45;13.77;;;2.47;;
33830;SDS011;20137;48.834;8.732;2023-12-22T02:45:15;7.65;;;1.75;;
33830;SDS011;20137;48.834;8.732;2023-12-22T02:47:41;6.40;;;1.67;;
33830;SDS011;20137;48.834;8.732;2023-12-22T02:50:07;9.93;;;1.55;;
33830;SDS011;20137;48.834;8.732;2023-12-22T02:52:33;5.63;;;2.15;;
33830;SDS011;20137;48.834;8.732;2023-12-22T02:55:00;7.07;;;1.60;;
33830;SDS011;20137;48.834;8.732;2023-12-22T02:57:26;10.25;;;1.75;;
33830;SDS011;20137;48.834;8.732;2023-12-22T02:59:52;9.93;;;1.73;;
33830;SDS011;20137;48.834;8.732;2023-12-22T03:02:18;2.97;;;1.00;;
33830;SDS011;20137;48.834;8.732;2023-12-22T03:04:44;4.78;;;0.93;;
33830;SDS011;20137;48.834;8.732;2023-12-22T03:07:13;8.88;;;1.55;;
33830;SDS011;20137;48.834;8.732;2023-12-22T03:09:39;9.95;;;1.33;;
33830;SDS011;20137;48.834;8.732;2023-12-22T03:12:06;8.35;;;1.35;;
33830;SDS011;20137;48.834;8.732;2023-12-22T03:14:32;7.03;;;1.75;;
33830;SDS011;20137;48.834;8.732;2023-12-22T03:16:59;9.07;;;1.30;;
33830;SDS011;20137;48.834;8.732;2023-12-22T03:19:25;8.20;;;1.42;;
33830;SDS011;20137;48.834;8.732;2023-12-22T03:21:51;4.43;;;1.40;;
33830;SDS011;20137;48.834;8.732;2023-12-22T03:24:17;6.95;;;1.45;;
33830;SDS011;20137;48.834;8.732;2023-12-22T03:26:44;6.90;;;1.05;;
33830;SDS011;20137;48.834;8.732;2023-12-22T03:29:10;6.30;;;1.38;;
33830;SDS011;20137;48.834;8.732;2023-12-22T03:31:36;8.13;;;2.30;;
33830;SDS011;20137;48.834;8.732;2023-12-22T03:34:02;11.95;;;1.73;;
33830;SDS011;20137;48.834;8.732;2023-12-22T03:36:29;9.73;;;1.48;;
33830;SDS011;20137;48.834;8.732;2023-12-22T03:38:54;6.45;;;2.22;;
33830;SDS011;20137;48.834;8.732;2023-12-22T03:41:20;13.77;;;2.00;;
33830;SDS011;20137;48.834;8.732;2023-12-22T03:43:46;10.60;;;2.22;;
33830;SDS011;20137;48.834;8.732;2023-12-22T03:46:12;8.95;;;1.60;;
33830;SDS011;20137;48.834;8.732;2023-12-22T03:48:38;9.48;;;2.00;;
33830;SDS011;20137;48.834;8.732;2023-12-22T03:51:04;15.02;;;2.05;;
33830;SDS011;20137;48.834;8.732;2023-12-22T03:53:30;8.05;;;2.05;;
33830;SDS011;20137;48.834;8.732;2023-12-22T03:55:56;11.18;;;2.10;;
33830;SDS011;20137;48.834;8.732;2023-12-22T03:58:22;15.27;;;2.15;;
33830;SDS011;20137;48.834;8.732;2023-12-22T04:00:49;8.05;;;1.80;;
33830;SDS011;20137;48.834;8.732;2023-12-22T04:03:15;7.03;;;2.03;;
33830;SDS011;20137;48.834;8.732;2023-12-22T04:05:41;11.02;;;1.55;;
33830;SDS011;20137;48.834;8.732;2023-12-22T04:08:07;17.85;;;2.72;;
33830;SDS011;20137;48.834;8.732;2023-12-22T04:10:33;6.93;;;1.75;;
33830;SDS011;20137;48.834;8.732;2023-12-22T04:12:59;8.15;;;1.95;;
33830;SDS011;20137;48.834;8.732;2023-12-22T04:15:25;12.35;;;2.03;;
33830;SDS011;20137;48.834;8.732;2023-12-22T04:17:51;11.63;;;1.80;;
33830;SDS011;20137;48.834;8.732;2023-12-22T04:20:17;11.85;;;1.60;;
33830;SDS011;20137;48.834;8.732;2023-12-22T04:22:43;10.73;;;1.50;;
33830;SDS011;20137;48.834;8.732;2023-12-22T04:25:10;8.35;;;1.27;;
33830;SDS011;20137;48.834;8.732;2023-12-22T04:27:36;9.80;;;1.98;;
33830;SDS011;20137;48.834;8.732;2023-12-22T04:30:02;9.40;;;1.25;;
33830;SDS011;20137;48.834;8.732;2023-12-22T04:32:28;6.72;;;1.23;;
33830;SDS011;20137;48.834;8.732;2023-12-22T04:34:54;9.70;;;1.75;;
33830;SDS011;20137;48.834;8.732;2023-12-22T04:37:20;11.15;;;2.15;;
33830;SDS011;20137;48.834;8.732;2023-12-22T04:39:46;8.80;;;1.63;;
33830;SDS011;20137;48.834;8.732;2023-12-22T04:42:12;14.60;;;1.90;;
33830;SDS011;20137;48.834;8.732;2023-12-22T04:44:38;10.15;;;2.22;;
33830;SDS011;20137;48.834;8.732;2023-12-22T04:47:04;14.93;;;2.33;;
33830;SDS011;20137;48.834;8.732;2023-12-22T04:49:30;11.75;;;2.10;;
33830;SDS011;20137;48.834;8.732;2023-12-22T04:51:56;8.52;;;2.13;;
33830;SDS011;20137;48.834;8.732;2023-12-22T04:54:22;11.93;;;2.28;;
33830;SDS011;20137;48.834;8.732;2023-12-22T04:56:48;20.10;;;2.33;;
33830;SDS011;20137;48.834;8.732;2023-12-22T04:59:14;15.38;;;2.63;;
33830;SDS011;20137;48.834;8.732;2023-12-22T05:01:40;18.42;;;2.67;;
33830;SDS011;20137;48.834;8.732;2023-12-22T05:04:07;21.50;;;2.58;;
33830;SDS011;20137;48.834;8.732;2023-12-22T05:06:34;19.42;;;2.25;;
33830;SDS011;20137;48.834;8.732;2023-12-22T05:09:00;10.23;;;2.60;;
33830;SDS011;20137;48.834;8.732;2023-12-22T05:11:27;15.18;;;2.40;;
33830;SDS011;20137;48.834;8.732;2023-12-22T05:13:53;19.65;;;3.30;;
33830;SDS011;20137;48.834;8.732;2023-12-22T05:16:20;14.27;;;2.63;;
33830;SDS011;20137;48.834;8.732;2023-12-22T05:18:46;15.10;;;2.67;;
33830;SDS011;20137;48.834;8.732;2023-12-22T05:21:12;18.83;;;3.50;;
33830;SDS011;20137;48.834;8.732;2023-12-22T05:23:39;18.25;;;2.70;;
33830;SDS011;20137;48.834;8.732;2023-12-22T05:26:05;13.48;;;2.80;;
33830;SDS011;20137;48.834;8.732;2023-12-22T05:28:32;10.25;;;2.38;;
33830;SDS011;20137;48.834;8.732;2023-12-22T05:30:58;18.55;;;3.17;;
33830;SDS011;20137;48.834;8.732;2023-12-22T05:33:24;13.88;;;2.60;;
33830;SDS011;20137;48.834;8.732;2023-12-22T05:35:50;13.27;;;3.28;;
33830;SDS011;20137;48.834;8.732;2023-12-22T05:38:16;19.92;;;2.75;;
33830;SDS011;20137;48.834;8.732;2023-12-22T05:40:42;20.45;;;3.50;;
33830;SDS011;20137;48.834;8.732;2023-12-22T05:43:08;14.85;;;2.95;;
33830;SDS011;20137;48.834;8.732;2023-12-22T05:45:34;14.18;;;2.90;;
33830;SDS011;20137;48.834;8.732;2023-12-22T05:48:00;13.55;;;2.63;;
33830;SDS011;20137;48.834;8.732;2023-12-22T05:50:26;13.02;;;2.60;;
33830;SDS011;20137;48.834;8.732;2023-12-22T05:52:52;16.27;;;2.60;;
33830;SDS011;20137;48.834;8.732;2023-12-22T05:55:19;13.93;;;2.03;;
33830;SDS011;20137;48.834;8.732;2023-12-22T05:57:45;16.48;;;2.58;;
33830;SDS011;20137;48.834;8.732;2023-12-22T06:00:11;15.32;;;2.80;;
33830;SDS011;20137;48.834;8.732;2023-12-22T06:02:40;14.38;;;3.15;;
33830;SDS011;20137;48.834;8.732;2023-12-22T06:05:06;18.23;;;3.10;;
33830;SDS011;20137;48.834;8.732;2023-12-22T06:07:32;10.45;;;2.67;;
33830;SDS011;20137;48.834;8.732;2023-12-22T06:09:58;14.13;;;2.70;;
33830;SDS011;20137;48.834;8.732;2023-12-22T06:12:24;13.25;;;2.85;;
33830;SDS011;20137;48.834;8.732;2023-12-22T06:14:50;17.27;;;2.55;;
33830;SDS011;20137;48.834;8.732;2023-12-22T06:17:16;14.23;;;2.45;;
33830;SDS011;20137;48.834;8.732;2023-12-22T06:19:42;16.38;;;2.83;;
33830;SDS011;20137;48.834;8.732;2023-12-22T06:22:08;10.20;;;1.65;;
33830;SDS011;20137;48.834;8.732;2023-12-22T06:24:35;14.35;;;2.17;;
33830;SDS011;20137;48.834;8.732;2023-12-22T06:27:01;10.65;;;2.17;;
33830;SDS011;20137;48.834;8.732;2023-12-22T06:29:27;13.15;;;2.20;;
33830;SDS011;20137;48.834;8.732;2023-12-22T06:31:53;8.85;;;2.20;;
33830;SDS011;20137;48.834;8.732;2023-12-22T06:34:19;17.27;;;3.10;;
33830;SDS011;20137;48.834;8.732;2023-12-22T06:36:45;13.43;;;2.13;;
33830;SDS011;20137;48.834;8.732;2023-12-22T06:39:11;14.32;;;2.85;;
33830;SDS011;20137;48.834;8.732;2023-12-22T06:41:37;13.80;;;2.50;;
33830;SDS011;20137;48.834;8.732;2023-12-22T06:44:03;19.15;;;2.53;;
33830;SDS011;20137;48.834;8.732;2023-12-22T06:46:29;15.30;;;2.60;;
33830;SDS011;20137;48.834;8.732;2023-12-22T06:48:55;19.70;;;3.28;;
33830;SDS011;20137;48.834;8.732;2023-12-22T06:51:22;19.33;;;2.85;;
33830;SDS011;20137;48.834;8.732;2023-12-22T06:53:49;12.90;;;3.15;;
33830;SDS011;20137;48.834;8.732;2023-12-22T06:56:16;20.25;;;4.28;;
33830;SDS011;20137;48.834;8.732;2023-12-22T06:58:41;25.10;;;3.50;;
33830;SDS011;20137;48.834;8.732;2023-12-22T07:01:08;17.98;;;3.33;;
33830;SDS011;20137;48.834;8.732;2023-12-22T07:03:34;11.45;;;3.05;;
33830;SDS011;20137;48.834;8.732;2023-12-22T07:05:59;18.67;;;3.10;;
33830;SDS011;20137;48.834;8.732;2023-12-22T07:08:25;13.75;;;2.38;;
33830;SDS011;20137;48.834;8.732;2023-12-22T07:10:51;17.02;;;2.60;;
33830;SDS011;20137;48.834;8.732;2023-12-22T07:13:17;20.58;;;2.90;;
33830;SDS011;20137;48.834;8.732;2023-12-22T07:15:44;12.43;;;2.55;;
33830;SDS011;20137;48.834;8.732;2023-12-22T07:18:10;18.85;;;2.65;;
33830;SDS011;20137;48.834;8.732;2023-12-22T07:20:36;12.35;;;2.42;;
33830;SDS011;20137;48.834;8.732;2023-12-22T07:23:01;21.02;;;2.97;;
33830;SDS011;20137;48.834;8.732;2023-12-22T07:25:27;15.48;;;3.63;;
33830;SDS011;20137;48.834;8.732;2023-12-22T07:27:53;18.80;;;2.42;;
33830;SDS011;20137;48.834;8.732;2023-12-22T07:30:20;13.02;;;3.15;;
33830;SDS011;20137;48.834;8.732;2023-12-22T07:32:45;16.83;;;2.60;;
33830;SDS011;20137;48.834;8.732;2023-12-22T07:35:16;13.98;;;2.17;;
33830;SDS011;20137;48.834;8.732;2023-12-22T07:37:42;17.80;;;2.63;;
33830;SDS011;20137;48.834;8.732;2023-12-22T07:40:09;10.70;;;2.40;;
33830;SDS011;20137;48.834;8.732;2023-12-22T07:42:35;18.30;;;2.90;;
33830;SDS011;20137;48.834;8.732;2023-12-22T07:45:01;14.80;;;2.58;;
33830;SDS011;20137;48.834;8.732;2023-12-22T07:47:28;18.20;;;3.47;;
33830;SDS011;20137;48.834;8.732;2023-12-22T07:49:54;17.63;;;3.13;;
33830;SDS011;20137;48.834;8.732;2023-12-22T07:52:20;21.30;;;3.20;;
33830;SDS011;20137;48.834;8.732;2023-12-22T07:54:46;23.58;;;3.45;;
33830;SDS011;20137;48.834;8.732;2023-12-22T07:57:12;17.13;;;2.67;;
33830;SDS011;20137;48.834;8.732;2023-12-22T07:59:38;20.48;;;3.30;;
33830;SDS011;20137;48.834;8.732;2023-12-22T08:02:04;25.77;;;3.53;;
33830;SDS011;20137;48.834;8.732;2023-12-22T08:04:30;26.27;;;4.03;;
33830;SDS011;20137;48.834;8.732;2023-12-22T08:06:57;24.63;;;3.22;;
33830;SDS011;20137;48.834;8.732;2023-12-22T08:09:23;24.48;;;4.03;;
33830;SDS011;20137;48.834;8.732;2023-12-22T08:11:49;27.70;;;5.70;;
33830;SDS011;20137;48.834;8.732;2023-12-22T08:14:18;16.65;;;3.38;;
33830;SDS011;20137;48.834;8.732;2023-12-22T08:16:44;23.30;;;5.20;;
33830;SDS011;20137;48.834;8.732;2023-12-22T08:19:10;23.30;;;4.47;;
33830;SDS011;20137;48.834;8.732;2023-12-22T08:21:36;20.30;;;3.28;;
33830;SDS011;20137;48.834;8.732;2023-12-22T08:24:02;23.35;;;3.92;;
33830;SDS011;20137;48.834;8.732;2023-12-22T08:26:31;29.65;;;4.15;;
33830;SDS011;20137;48.834;8.732;2023-12-22T08:28:57;27.85;;;4.22;;
33830;SDS011;20137;48.834;8.732;2023-12-22T08:31:23;23.08;;;4.35;;
33830;SDS011;20137;48.834;8.732;2023-12-22T08:33:49;29.75;;;3.88;;
33830;SDS011;20137;48.834;8.732;2023-12-22T08:36:15;24.25;;;3.92;;
33830;SDS011;20137;48.834;8.732;2023-12-22T08:38:41;20.88;;;3.50;;
33830;SDS011;20137;48.834;8.732;2023-12-22T08:41:07;21.27;;;3.55;;
33830;SDS011;20137;48.834;8.732;2023-12-22T08:43:35;20.73;;;3.10;;
33830;SDS011;20137;48.834;8.732;2023-12-22T08:46:03;26.23;;;4.05;;
33830;SDS011;20137;48.834;8.732;2023-12-22T08:48:29;24.65;;;5.00;;
33830;SDS011;20137;48.834;8.732;2023-12-22T08:50:55;25.15;;;3.50;;
33830;SDS011;20137;48.834;8.732;2023-12-22T08:53:21;26.02;;;4.25;;
33830;SDS011;20137;48.834;8.732;2023-12-22T08:55:47;43.72;;;13.10;;
33830;SDS011;20137;48.834;8.732;2023-12-22T08:58:13;28.88;;;4.10;;
33830;SDS011;20137;48.834;8.732;2023-12-22T09:00:39;23.98;;;3.63;;
33830;SDS011;20137;48.834;8.732;2023-12-22T09:03:06;22.13;;;3.75;;
33830;SDS011;20137;48.834;8.732;2023-12-22T09:05:32;22.00;;;4.32;;
33830;SDS011;20137;48.834;8.732;2023-12-22T09:07:58;22.85;;;4.10;;
33830;SDS011;20137;48.834;8.732;2023-12-22T09:10:25;18.15;;;3.65;;
33830;SDS011;20137;48.834;8.732;2023-12-22T09:12:51;28.98;;;3.97;;
33830;SDS011;20137;48.834;8.732;2023-12-22T09:15:17;21.98;;;3.78;;
33830;SDS011;20137;48.834;8.732;2023-12-22T09:17:43;21.25;;;3.35;;
33830;SDS011;20137;48.834;8.732;2023-12-22T09:20:10;29.25;;;3.85;;
33830;SDS011;20137;48.834;8.732;2023-12-22T09:22:36;22.27;;;3.38;;
33830;SDS011;20137;48.834;8.732;2023-12-22T09:25:02;24.05;;;3.58;;
33830;SDS011;20137;48.834;8.732;2023-12-22T09:27:28;22.00;;;3.80;;
33830;SDS011;20137;48.834;8.732;2023-12-22T09:29:56;22.85;;;4.18;;
33830;SDS011;20137;48.834;8.732;2023-12-22T09:32:22;34.38;;;6.53;;
33830;SDS011;20137;48.834;8.732;2023-12-22T09:34:48;26.83;;;4.00;;
33830;SDS011;20137;48.834;8.732;2023-12-22T09:37:14;26.27;;;4.40;;
33830;SDS011;20137;48.834;8.732;2023-12-22T09:39:40;30.50;;;4.97;;
33830;SDS011;20137;48.834;8.732;2023-12-22T09:42:06;27.25;;;4.82;;
33830;SDS011;20137;48.834;8.732;2023-12-22T09:44:32;23.92;;;5.22;;
33830;SDS011;20137;48.834;8.732;2023-12-22T09:46:59;24.75;;;5.28;;
33830;SDS011;20137;48.834;8.732;2023-12-22T09:49:26;15.38;;;3.22;;
33830;SDS011;20137;48.834;8.732;2023-12-22T09:51:52;17.08;;;3.50;;
33830;SDS011;20137;48.834;8.732;2023-12-22T09:54:19;23.98;;;3.40;;
33830;SDS011;20137;48.834;8.732;2023-12-22T09:56:45;25.00;;;4.35;;
33830;SDS011;20137;48.834;8.732;2023-12-22T09:59:12;24.13;;;4.15;;
33830;SDS011;20137;48.834;8.732;2023-12-22T10:01:45;22.08;;;4.10;;
33830;SDS011;20137;48.834;8.732;2023-12-22T10:04:12;22.08;;;3.50;;
33830;SDS011;20137;48.834;8.732;2023-12-22T10:06:38;18.70;;;3.33;;
33830;SDS011;20137;48.834;8.732;2023-12-22T10:09:07;20.75;;;4.35;;
33830;SDS011;20137;48.834;8.732;2023-12-22T10:11:34;21.33;;;3.20;;
33830;SDS011;20137;48.834;8.732;2023-12-22T10:14:04;19.98;;;4.22;;
33830;SDS011;20137;48.834;8.732;2023-12-22T10:16:30;22.90;;;4.07;;
33830;SDS011;20137;48.834;8.732;2023-12-22T10:18:56;25.08;;;3.30;;
33830;SDS011;20137;48.834;8.732;2023-12-22T10:21:22;20.80;;;3.45;;
33830;SDS011;20137;48.834;8.732;2023-12-22T10:23:48;17.00;;;3.35;;
33830;SDS011;20137;48.834;8.732;2023-12-22T10:26:14;24.30;;;4.35;;
33830;SDS011;20137;48.834;8.732;2023-12-22T10:28:42;16.27;;;3.10;;
33830;SDS011;20137;48.834;8.732;2023-12-22T10:31:08;23.88;;;3.40;;
33830;SDS011;20137;48.834;8.732;2023-12-22T10:33:34;22.45;;;3.17;;
33830;SDS011;20137;48.834;8.732;2023-12-22T10:36:00;19.15;;;3.72;;
33830;SDS011;20137;48.834;8.732;2023-12-22T10:38:32;19.65;;;2.83;;
33830;SDS011;20137;48.834;8.732;2023-12-22T10:40:59;11.95;;;2.60;;
33830;SDS011;20137;48.834;8.732;2023-12-22T10:43:26;21.30;;;3.63;;
33830;SDS011;20137;48.834;8.732;2023-12-22T10:45:52;12.73;;;2.30;;
33830;SDS011;20137;48.834;8.732;2023-12-22T10:48:18;15.60;;;3.42;;
33830;SDS011;20137;48.834;8.732;2023-12-22T10:50:44;15.18;;;3.30;;
33830;SDS011;20137;48.834;8.732;2023-12-22T10:53:12;11.73;;;2.28;;
33830;SDS011;20137;48.834;8.732;2023-12-22T10:55:38;21.95;;;3.25;;
33830;SDS011;20137;48.834;8.732;2023-12-22T10:58:05;14.00;;;3.35;;
33830;SDS011;20137;48.834;8.732;2023-12-22T11:00:35;14.10;;;2.58;;
33830;SDS011;20137;48.834;8.732;2023-12-22T11:03:03;18.73;;;3.40;;
33830;SDS011;20137;48.834;8.732;2023-12-22T11:05:33;17.00;;;3.33;;
33830;SDS011;20137;48.834;8.732;2023-12-22T11:07:59;15.68;;;3.90;;
33830;SDS011;20137;48.834;8.732;2023-12-22T11:10:27;14.55;;;2.20;;
33830;SDS011;20137;48.834;8.732;2023-12-22T11:12:53;10.45;;;2.63;;
33830;SDS011;20137;48.834;8.732;2023-12-22T11:15:22;10.63;;;2.35;;
33830;SDS011;20137;48.834;8.732;2023-12-22T11:17:49;10.02;;;2.42;;
33830;SDS011;20137;48.834;8.732;2023-12-22T11:20:17;11.32;;;2.78;;
33830;SDS011;20137;48.834;8.732;2023-12-22T11:22:43;9.10;;;2.00;;
33830;SDS011;20137;48.834;8.732;2023-12-22T11:25:10;16.33;;;3.97;;
33830;SDS011;20137;48.834;8.732;2023-12-22T11:27:37;12.52;;;3.10;;
33830;SDS011;20137;48.834;8.732;2023-12-22T11:30:04;10.32;;;2.17;;
33830;SDS011;20137;48.834;8.732;2023-12-22T11:32:33;8.85;;;2.55;;
33830;SDS011;20137;48.834;8.732;2023-12-22T11:35:00;9.50;;;3.95;;
33830;SDS011;20137;48.834;8.732;2023-12-22T11:37:26;6.65;;;2.10;;
33830;SDS011;20137;48.834;8.732;2023-12-22T11:39:53;8.13;;;1.23;;
33830;SDS011;20137;48.834;8.732;2023-12-22T11:42:21;10.52;;;2.05;;
33830;SDS011;20137;48.834;8.732;2023-12-22T11:44:49;8.02;;;1.58;;
33830;SDS011;20137;48.834;8.732;2023-12-22T11:47:15;6.35;;;1.23;;
33830;SDS011;20137;48.834;8.732;2023-12-22T11:49:41;14.80;;;4.78;;
33830;SDS011;20137;48.834;8.732;2023-12-22T11:52:14;15.70;;;5.20;;
33830;SDS011;20137;48.834;8.732;2023-12-22T11:54:46;4.75;;;1.25;;
33830;SDS011;20137;48.834;8.732;2023-12-22T11:59:55;7.15;;;2.35;;
33830;SDS011;20137;48.834;8.732;2023-12-22T12:02:21;7.55;;;3.20;;
33830;SDS011;20137;48.834;8.732;2023-12-22T12:04:48;4.05;;;0.90;;
33830;SDS011;20137;48.834;8.732;2023-12-22T12:09:58;4.60;;;2.03;;
33830;SDS011;20137;48.834;8.732;2023-12-22T12:12:24;4.35;;;1.60;;
33830;SDS011;20137;48.834;8.732;2023-12-22T12:14:50;1.63;;;0.90;;
33830;SDS011;20137;48.834;8.732;2023-12-22T12:17:20;4.30;;;1.65;;
33830;SDS011;20137;48.834;8.732;2023-12-22T12:19:46;4.88;;;1.23;;
33830;SDS011;20137;48.834;8.732;2023-12-22T12:22:13;1.40;;;0.70;;
33830;SDS011;20137;48.834;8.732;2023-12-22T12:24:40;1.60;;;0.80;;
33830;SDS011;20137;48.834;8.732;2023-12-22T12:27:07;4.03;;;1.27;;
33830;SDS011;20137;48.834;8.732;2023-12-22T12:29:33;2.40;;;1.08;;
33830;SDS011;20137;48.834;8.732;2023-12-22T12:32:02;3.40;;;1.35;;
33830;SDS011;20137;48.834;8.732;2023-12-22T12:34:29;1.92;;;0.60;;
33830;SDS011;20137;48.834;8.732;2023-12-22T12:36:55;2.47;;;0.90;;
33830;SDS011;20137;48.834;8.732;2023-12-22T12:39:22;2.75;;;0.68;;
33830;SDS011;20137;48.834;8.732;2023-12-22T12:41:53;2.97;;;0.50;;
33830;SDS011;20137;48.834;8.732;2023-12-22T12:44:21;3.22;;;1.27;;
33830;SDS011;20137;48.834;8.732;2023-12-22T12:46:48;1.77;;;0.90;;
33830;SDS011;20137;48.834;8.732;2023-12-22T12:49:14;1.05;;;0.80;;
33830;SDS011;20137;48.834;8.732;2023-12-22T12:51:41;1.85;;;0.70;;
33830;SDS011;20137;48.834;8.732;2023-12-22T12:54:08;1.48;;;0.50;;
33830;SDS011;20137;48.834;8.732;2023-12-22T12:56:38;0.93;;;0.52;;
33830;SDS011;20137;48.834;8.732;2023-12-22T12:59:11;1.98;;;0.68;;
33830;SDS011;20137;48.834;8.732;2023-12-22T13:01:39;0.70;;;0.40;;
33830;SDS011;20137;48.834;8.732;2023-12-22T13:04:05;0.90;;;0.30;;
33830;SDS011;20137;48.834;8.732;2023-12-22T13:06:31;2.22;;;0.73;;
33830;SDS011;20137;48.834;8.732;2023-12-22T13:08:58;1.23;;;0.60;;
33830;SDS011;20137;48.834;8.732;2023-12-22T13:11:25;0.90;;;0.60;;
33830;SDS011;20137;48.834;8.732;2023-12-22T13:13:51;3.97;;;1.42;;
33830;SDS011;20137;48.834;8.732;2023-12-22T13:16:20;1.98;;;0.70;;
33830;SDS011;20137;48.834;8.732;2023-12-22T13:18:48;0.77;;;0.40;;
33830;SDS011;20137;48.834;8.732;2023-12-22T13:21:14;0.82;;;0.60;;
33830;SDS011;20137;48.834;8.732;2023-12-22T13:23:41;3.05;;;0.52;;
33830;SDS011;20137;48.834;8.732;2023-12-22T13:26:17;2.83;;;1.15;;
33830;SDS011;20137;48.834;8.732;2023-12-22T13:28:43;2.17;;;0.93;;
33830;SDS011;20137;48.834;8.732;2023-12-22T13:31:13;0.73;;;0.50;;
33830;SDS011;20137;48.834;8.732;2023-12-22T13:33:42;0.47;;;0.40;;
33830;SDS011;20137;48.834;8.732;2023-12-22T13:36:08;0.43;;;0.43;;
33830;SDS011;20137;48.834;8.732;2023-12-22T13:38:34;1.42;;;0.50;;
33830;SDS011;20137;48.834;8.732;2023-12-22T13:41:03;2.50;;;1.30;;
33830;SDS011;20137;48.834;8.732;2023-12-22T13:43:30;4.43;;;2.47;;
33830;SDS011;20137;48.834;8.732;2023-12-22T13:45:56;1.25;;;0.77;;
33830;SDS011;20137;48.834;8.732;2023-12-22T13:48:23;2.88;;;0.80;;
33830;SDS011;20137;48.834;8.732;2023-12-22T13:50:59;3.08;;;0.60;;
33830;SDS011;20137;48.834;8.732;2023-12-22T13:53:26;0.80;;;0.60;;
33830;SDS011;20137;48.834;8.732;2023-12-22T13:55:57;1.13;;;0.52;;
33830;SDS011;20137;48.834;8.732;2023-12-22T13:58:24;0.73;;;0.50;;
33830;SDS011;20137;48.834;8.732;2023-12-22T14:00:50;0.63;;;0.50;;
33830;SDS011;20137;48.834;8.732;2023-12-22T14:03:17;1.75;;;0.70;;
33830;SDS011;20137;48.834;8.732;2023-12-22T14:05:46;0.90;;;0.50;;
33830;SDS011;20137;48.834;8.732;2023-12-22T14:08:12;0.45;;;0.40;;
33830;SDS011;20137;48.834;8.732;2023-12-22T14:10:44;0.90;;;0.50;;
33830;SDS011;20137;48.834;8.732;2023-12-22T14:13:10;0.70;;;0.50;;
33830;SDS011;20137;48.834;8.732;2023-12-22T14:15:36;1.95;;;0.60;;
33830;SDS011;20137;48.834;8.732;2023-12-22T14:18:02;1.58;;;0.57;;
33830;SDS011;20137;48.834;8.732;2023-12-22T14:20:29;0.40;;;0.40;;
33830;SDS011;20137;48.834;8.732;2023-12-22T14:22:54;2.22;;;0.88;;
33830;SDS011;20137;48.834;8.732;2023-12-22T14:25:20;1.58;;;0.70;;
33830;SDS011;20137;48.834;8.732;2023-12-22T14:27:46;0.73;;;0.60;;
33830;SDS011;20137;48.834;8.732;2023-12-22T14:30:13;2.72;;;0.85;;
33830;SDS011;20137;48.834;8.732;2023-12-22T14:32:39;1.63;;;0.70;;
33830;SDS011;20137;48.834;8.732;2023-12-22T14:35:05;2.88;;;1.02;;
33830;SDS011;20137;48.834;8.732;2023-12-22T14:37:31;1.08;;;0.60;;
33830;SDS011;20137;48.834;8.732;2023-12-22T14:39:57;2.42;;;0.80;;
33830;SDS011;20137;48.834;8.732;2023-12-22T14:42:23;1.75;;;0.77;;
33830;SDS011;20137;48.834;8.732;2023-12-22T14:44:49;1.13;;;0.60;;